createdAt,value
2022-10-29T00:00:11.960Z,119.90
2022-10-29T00:01:14.843Z,111.35
2022-10-29T00:02:18.716Z,110.90
2022-10-29T00:03:21.925Z,247.55
2022-10-29T00:04:25.923Z,112.45
2022-10-29T00:05:28.645Z,153.80
2022-10-29T00:06:32.445Z,659.75
2022-10-29T00:07:35.384Z,301.50
2022-10-29T00:08:40.550Z,92.47
2022-10-29T00:09:43.309Z,105.68
2022-10-29T00:10:47.178Z,144.60
2022-10-29T00:11:49.856Z,547.28
2022-10-29T00:12:55.118Z,94.22
2022-10-29T00:13:59.377Z,110.85
2022-10-29T00:15:03.245Z,110.80
2022-10-29T00:16:07.364Z,100.30
2022-10-29T00:17:11.084Z,104.40
2022-10-29T00:18:13.918Z,72.93
2022-10-29T00:19:17.639Z,65.97
2022-10-29T00:20:21.959Z,62.45
2022-10-29T00:21:26.825Z,85.95
2022-10-29T00:22:29.700Z,90.05
2022-10-29T00:23:33.645Z,101.65
2022-10-29T00:24:36.285Z,153.43
2022-10-29T00:25:40.032Z,141.70
2022-10-29T00:26:42.796Z,193.25
2022-10-29T00:27:46.585Z,113.07
2022-10-29T00:28:52.532Z,89.28
2022-10-29T00:29:56.497Z,93.28
2022-10-29T00:31:03.258Z,149.60
2022-10-29T00:32:07.140Z,354.15
2022-10-29T00:33:09.933Z,235.00
2022-10-29T00:34:13.775Z,300.25
2022-10-29T00:35:16.593Z,147.32
2022-10-29T00:36:26.976Z,153.52
2022-10-29T00:37:32.885Z,75.20
2022-10-29T00:38:36.253Z,90.85
2022-10-29T00:39:40.025Z,65.63
2022-10-29T00:40:42.761Z,101.20
2022-10-29T00:41:46.455Z,69.45
2022-10-29T00:42:49.179Z,313.77
2022-10-29T00:44:23.887Z,339.73
2022-10-29T00:45:26.648Z,383.98
2022-10-29T00:46:33.224Z,257.90
2022-10-29T00:47:41.109Z,214.40
2022-10-29T00:48:48.877Z,54.50
2022-10-29T00:49:55.434Z,52.38
2022-10-29T00:50:59.894Z,80.07
2022-10-29T00:52:03.928Z,109.70
2022-10-29T00:53:07.736Z,61.42
2022-10-29T00:54:12.614Z,64.90
2022-10-29T00:55:17.362Z,260.00
2022-10-29T00:56:21.505Z,69.00
2022-10-29T00:57:30.041Z,60.22
2022-10-29T00:58:32.906Z,199.90
2022-10-29T00:59:38.155Z,110.50
2022-10-29T01:00:41.065Z,55.42
2022-10-29T01:01:45.756Z,51.38
2022-10-29T01:02:48.858Z,208.65
2022-10-29T01:03:53.245Z,74.05
2022-10-29T01:04:56.114Z,72.38
2022-10-29T01:06:00.494Z,114.47
2022-10-29T01:07:03.518Z,108.85
2022-10-29T01:08:07.418Z,82.22
2022-10-29T01:09:10.585Z,82.70
2022-10-29T01:10:14.575Z,75.10
2022-10-29T01:11:25.889Z,79.75
2022-10-29T01:13:00.530Z,208.05
2022-10-29T01:14:12.358Z,292.17
2022-10-29T01:15:23.460Z,163.90
2022-10-29T01:16:30.445Z,64.53
2022-10-29T01:17:42.742Z,59.65
2022-10-29T01:18:51.652Z,212.57
2022-10-29T01:20:12.635Z,373.58
2022-10-29T01:21:39.897Z,79.68
2022-10-29T01:22:45.167Z,142.00
2022-10-29T01:24:25.199Z,135.70
2022-10-29T01:25:43.441Z,87.18
2022-10-29T01:27:19.591Z,103.05
2022-10-29T01:28:27.844Z,181.80
2022-10-29T01:29:45.087Z,152.65
2022-10-29T01:31:27.175Z,93.57
2022-10-29T01:32:33.712Z,75.75
2022-10-29T01:33:42.107Z,78.70
2022-10-29T01:34:51.995Z,57.55
2022-10-29T01:35:59.924Z,78.20
2022-10-29T01:37:06.978Z,70.53
2022-10-29T01:38:22.566Z,74.32
2022-10-29T01:39:34.728Z,69.05
2022-10-29T01:40:41.887Z,64.75
2022-10-29T01:41:51.729Z,75.47
2022-10-29T01:42:58.144Z,132.98
2022-10-29T01:44:06.758Z,362.58
2022-10-29T01:45:15.405Z,60.33
2022-10-29T01:46:23.219Z,134.13
2022-10-29T01:47:28.513Z,64.43
2022-10-29T01:48:36.834Z,142.00
2022-10-29T01:49:41.233Z,86.85
2022-10-29T01:50:47.205Z,92.07
2022-10-29T01:51:50.556Z,82.45
2022-10-29T01:52:55.453Z,146.38
2022-10-29T01:54:00.729Z,76.10
2022-10-29T01:55:20.936Z,223.20
2022-10-29T01:56:24.137Z,398.38
2022-10-29T01:57:31.614Z,344.33
2022-10-29T01:58:38.303Z,106.78
2022-10-29T01:59:55.509Z,51.55
2022-10-29T02:01:07.296Z,88.72
2022-10-29T02:02:17.479Z,127.28
2022-10-29T02:03:29.015Z,93.00
2022-10-29T02:05:08.108Z,69.40
2022-10-29T02:06:15.997Z,60.25
2022-10-29T02:07:27.465Z,72.03
2022-10-29T02:08:38.057Z,64.70
2022-10-29T02:09:47.006Z,62.67
2022-10-29T02:10:55.078Z,80.47
2022-10-29T02:11:59.994Z,328.20
2022-10-29T02:13:03.867Z,466.30
2022-10-29T02:14:09.576Z,62.13
2022-10-29T02:15:18.051Z,70.18
2022-10-29T02:16:21.387Z,77.20
2022-10-29T02:17:25.976Z,86.15
2022-10-29T02:18:29.086Z,99.30
2022-10-29T02:19:33.749Z,102.05
2022-10-29T02:20:42.206Z,106.93
2022-10-29T02:21:46.076Z,89.93
2022-10-29T02:22:48.750Z,98.43
2022-10-29T02:23:52.607Z,109.45
2022-10-29T02:24:55.764Z,94.90
2022-10-29T02:25:59.627Z,104.88
2022-10-29T02:27:02.308Z,109.70
2022-10-29T02:28:06.608Z,128.55
2022-10-29T02:29:09.357Z,169.90
2022-10-29T02:30:13.432Z,292.10
2022-10-29T02:31:16.363Z,148.90
2022-10-29T02:32:20.139Z,406.40
2022-10-29T02:33:22.945Z,576.15
2022-10-29T02:34:26.619Z,271.55
2022-10-29T02:35:29.394Z,166.18
2022-10-29T02:36:34.674Z,225.55
2022-10-29T02:37:37.455Z,169.93
2022-10-29T02:38:41.137Z,76.20
2022-10-29T02:39:43.745Z,55.03
2022-10-29T02:40:47.607Z,73.32
2022-10-29T02:41:50.266Z,62.95
2022-10-29T02:42:55.053Z,70.43
2022-10-29T02:43:58.096Z,87.72
2022-10-29T02:45:01.818Z,107.93
2022-10-29T02:46:14.194Z,381.15
2022-10-29T02:47:18.239Z,64.35
2022-10-29T02:48:20.967Z,71.20
2022-10-29T02:49:24.744Z,136.88
2022-10-29T02:50:27.446Z,95.30
2022-10-29T02:51:31.203Z,71.40
2022-10-29T02:52:35.238Z,92.63
2022-10-29T02:53:39.477Z,81.80
2022-10-29T02:54:43.111Z,128.95
2022-10-29T02:55:46.808Z,108.15
2022-10-29T02:56:49.641Z,257.80
2022-10-29T02:57:53.899Z,166.30
2022-10-29T02:58:57.109Z,90.88
2022-10-29T03:00:01.027Z,85.28
2022-10-29T03:01:03.916Z,100.07
2022-10-29T03:02:08.370Z,187.93
2022-10-29T03:03:11.237Z,53.33
2022-10-29T03:04:15.696Z,47.42
2022-10-29T03:05:19.529Z,188.90
2022-10-29T03:06:23.367Z,49.28
2022-10-29T03:07:26.089Z,149.20
2022-10-29T03:08:31.180Z,75.53
2022-10-29T03:09:33.858Z,70.15
2022-10-29T03:10:37.547Z,53.42
2022-10-29T03:11:40.136Z,124.43
2022-10-29T03:12:43.857Z,171.90
2022-10-29T03:13:46.560Z,87.63
2022-10-29T03:14:50.268Z,117.05
2022-10-29T03:15:52.959Z,171.68
2022-10-29T03:16:57.046Z,176.90
2022-10-29T03:17:59.869Z,58.65
2022-10-29T03:19:03.779Z,55.30
2022-10-29T03:20:07.388Z,121.20
2022-10-29T03:21:11.082Z,51.50
2022-10-29T03:22:14.778Z,60.25
2022-10-29T03:23:17.504Z,76.07
2022-10-29T03:24:22.594Z,60.22
2022-10-29T03:25:25.519Z,102.72
2022-10-29T03:26:29.355Z,95.50
2022-10-29T03:27:32.036Z,106.72
2022-10-29T03:28:35.741Z,251.35
2022-10-29T03:29:38.487Z,214.57
2022-10-29T03:30:42.181Z,83.07
2022-10-29T03:31:44.816Z,87.05
2022-10-29T03:32:49.567Z,100.25
2022-10-29T03:33:52.275Z,122.45
2022-10-29T03:34:59.122Z,81.40
2022-10-29T03:36:04.550Z,80.22
2022-10-29T03:37:08.301Z,72.63
2022-10-29T03:38:10.936Z,76.47
2022-10-29T03:39:14.655Z,141.23
2022-10-29T03:40:19.390Z,79.85
2022-10-29T03:41:23.239Z,62.40
2022-10-29T03:42:26.156Z,73.70
2022-10-29T03:43:29.788Z,69.90
2022-10-29T03:44:32.474Z,60.40
2022-10-29T03:45:36.176Z,88.82
2022-10-29T03:46:38.819Z,118.75
2022-10-29T03:47:42.846Z,90.88
2022-10-29T03:48:45.465Z,69.25
2022-10-29T03:49:49.175Z,141.82
2022-10-29T03:50:55.785Z,197.32
2022-10-29T03:51:59.532Z,467.42
2022-10-29T03:53:02.192Z,134.02
2022-10-29T03:54:06.214Z,485.42
2022-10-29T03:55:09.501Z,378.30
2022-10-29T03:56:14.687Z,214.32
2022-10-29T03:57:17.416Z,133.30
2022-10-29T03:58:21.679Z,465.90
2022-10-29T03:59:24.340Z,218.73
2022-10-29T04:00:28.014Z,86.35
2022-10-29T04:01:30.769Z,52.97
2022-10-29T04:02:35.080Z,71.15
2022-10-29T04:03:39.296Z,87.25
2022-10-29T04:04:42.995Z,90.35
2022-10-29T04:05:45.645Z,70.28
2022-10-29T04:06:49.328Z,84.95
2022-10-29T04:07:51.956Z,93.22
2022-10-29T04:08:56.587Z,85.00
2022-10-29T04:09:59.349Z,111.35
2022-10-29T04:11:03.112Z,68.80
2022-10-29T04:12:08.634Z,56.13
2022-10-29T04:13:12.498Z,75.55
2022-10-29T04:14:15.252Z,66.20
2022-10-29T04:15:19.051Z,77.82
2022-10-29T04:16:21.799Z,88.13
2022-10-29T04:17:25.714Z,78.13
2022-10-29T04:18:28.835Z,96.10
2022-10-29T04:19:32.553Z,72.90
2022-10-29T04:21:05.698Z,75.50
2022-10-29T04:24:32.445Z,84.47
2022-10-29T04:26:42.121Z,87.75
2022-10-29T04:28:41.775Z,107.38
2022-10-29T04:28:58.290Z,79.10
2022-10-29T04:30:00.956Z,88.25
2022-10-29T04:31:06.189Z,98.38
2022-10-29T04:32:08.855Z,104.85
2022-10-29T04:33:12.627Z,118.70
2022-10-29T04:34:15.357Z,146.73
2022-10-29T04:35:19.137Z,108.07
2022-10-29T04:36:21.888Z,136.02
2022-10-29T04:37:25.565Z,75.07
2022-10-29T04:38:28.324Z,81.82
2022-10-29T04:39:32.068Z,69.90
2022-10-29T04:40:34.775Z,92.40
2022-10-29T04:41:38.576Z,112.32
2022-10-29T04:42:42.727Z,96.78
2022-10-29T04:43:46.564Z,122.00
2022-10-29T04:44:52.094Z,62.72
2022-10-29T04:45:57.001Z,70.28
2022-10-29T04:46:59.781Z,67.90
2022-10-29T04:48:04.769Z,87.05
2022-10-29T04:49:07.450Z,97.38
2022-10-29T04:50:11.642Z,97.32
2022-10-29T04:51:20.124Z,111.15
2022-10-29T04:52:23.922Z,83.10
2022-10-29T04:53:26.798Z,104.32
2022-10-29T04:54:30.647Z,120.15
2022-10-29T04:55:37.136Z,103.85
2022-10-29T04:56:43.607Z,82.45
2022-10-29T04:57:51.102Z,80.38
2022-10-29T04:58:54.996Z,71.70
2022-10-29T04:59:57.796Z,86.25
2022-10-29T05:01:03.382Z,99.40
2022-10-29T05:02:06.167Z,90.55
2022-10-29T05:03:10.232Z,101.03
2022-10-29T05:04:12.988Z,101.72
2022-10-29T05:05:16.922Z,86.38
2022-10-29T05:06:19.615Z,128.10
2022-10-29T05:07:23.274Z,88.22
2022-10-29T05:08:25.936Z,75.35
2022-10-29T05:09:29.774Z,75.80
2022-10-29T05:10:34.474Z,77.32
2022-10-29T05:11:38.368Z,87.40
2022-10-29T05:12:41.379Z,85.88
2022-10-29T05:13:46.689Z,73.80
2022-10-29T05:14:49.390Z,65.80
2022-10-29T05:15:53.871Z,71.03
2022-10-29T05:16:56.639Z,64.18
2022-10-29T05:18:00.646Z,75.50
2022-10-29T05:19:04.028Z,101.70
2022-10-29T05:20:08.810Z,150.02
2022-10-29T05:21:11.586Z,115.45
2022-10-29T05:22:15.278Z,78.97
2022-10-29T05:23:18.036Z,74.72
2022-10-29T05:24:21.674Z,73.70
2022-10-29T05:25:24.336Z,71.68
2022-10-29T05:26:28.365Z,82.03
2022-10-29T05:27:31.336Z,83.53
2022-10-29T05:28:35.033Z,109.55
2022-10-29T05:29:39.189Z,121.00
2022-10-29T05:30:44.083Z,107.38
2022-10-29T05:31:46.918Z,130.05
2022-10-29T05:32:50.680Z,73.28
2022-10-29T05:33:55.609Z,72.65
2022-10-29T05:34:59.927Z,103.07
2022-10-29T05:36:03.606Z,85.18
2022-10-29T05:37:06.286Z,80.05
2022-10-29T05:38:11.909Z,70.28
2022-10-29T05:39:14.538Z,140.57
2022-10-29T05:40:18.289Z,78.95
2022-10-29T05:41:21.967Z,83.30
2022-10-29T05:42:24.684Z,78.82
2022-10-29T05:43:28.867Z,131.68
2022-10-29T05:44:31.548Z,135.77
2022-10-29T05:45:37.307Z,92.60
2022-10-29T05:46:39.935Z,95.97
2022-10-29T05:47:43.809Z,82.80
2022-10-29T05:48:46.499Z,64.07
2022-10-29T05:49:50.224Z,53.38
2022-10-29T05:50:52.891Z,126.32
2022-10-29T05:51:56.763Z,88.20
2022-10-29T05:53:00.308Z,65.72
2022-10-29T05:54:04.237Z,66.40
2022-10-29T05:55:08.244Z,86.13
2022-10-29T05:56:11.966Z,75.78
2022-10-29T05:57:14.622Z,95.07
2022-10-29T05:58:18.457Z,77.60
2022-10-29T05:59:21.102Z,70.30
2022-10-29T06:00:24.996Z,88.40
2022-10-29T06:01:30.181Z,71.13
2022-10-29T06:02:33.007Z,63.53
2022-10-29T06:03:36.878Z,66.10
2022-10-29T06:04:39.708Z,89.63
2022-10-29T06:05:43.544Z,68.65
2022-10-29T06:06:46.367Z,67.30
2022-10-29T06:07:55.410Z,55.97
2022-10-29T06:08:58.412Z,132.50
2022-10-29T06:10:02.165Z,74.03
2022-10-29T06:11:05.371Z,120.90
2022-10-29T06:12:09.607Z,68.05
2022-10-29T06:13:12.814Z,72.13
2022-10-29T06:14:16.614Z,84.85
2022-10-29T06:15:19.645Z,77.97
2022-10-29T06:16:23.602Z,83.93
2022-10-29T06:17:27.898Z,57.75
2022-10-29T06:18:31.710Z,67.70
2022-10-29T06:19:34.390Z,142.60
2022-10-29T06:20:38.796Z,70.15
2022-10-29T06:21:41.467Z,70.28
2022-10-29T06:22:45.167Z,94.28
2022-10-29T06:23:50.915Z,77.15
2022-10-29T06:24:53.544Z,85.03
2022-10-29T06:25:59.765Z,128.77
2022-10-29T06:27:02.461Z,97.20
2022-10-29T06:28:07.399Z,112.15
2022-10-29T06:29:10.087Z,79.88
2022-10-29T06:30:14.577Z,77.78
2022-10-29T06:31:17.204Z,81.63
2022-10-29T06:32:20.897Z,65.40
2022-10-29T06:33:24.996Z,75.65
2022-10-29T06:34:29.147Z,69.68
2022-10-29T06:35:32.148Z,86.10
2022-10-29T06:36:35.916Z,99.22
2022-10-29T06:37:38.659Z,82.82
2022-10-29T06:38:42.364Z,76.93
2022-10-29T06:39:45.100Z,104.95
2022-10-29T06:40:54.246Z,107.43
2022-10-29T06:41:56.906Z,88.63
2022-10-29T06:43:05.998Z,97.75
2022-10-29T06:44:08.629Z,78.55
2022-10-29T06:45:13.004Z,80.18
2022-10-29T06:46:15.706Z,78.78
2022-10-29T06:47:19.442Z,92.18
2022-10-29T06:48:22.930Z,81.75
2022-10-29T06:49:28.346Z,71.07
2022-10-29T06:50:31.036Z,69.88
2022-10-29T06:51:34.847Z,74.93
2022-10-29T06:52:37.799Z,63.58
2022-10-29T06:53:41.586Z,66.65
2022-10-29T06:54:44.286Z,64.85
2022-10-29T06:55:48.058Z,65.63
2022-10-29T06:56:50.746Z,57.55
2022-10-29T06:57:59.207Z,47.75
2022-10-29T06:59:01.897Z,55.90
2022-10-29T07:00:08.509Z,49.22
2022-10-29T07:01:12.723Z,42.28
2022-10-29T07:02:15.438Z,45.47
2022-10-29T07:03:20.228Z,40.42
2022-10-29T07:04:23.097Z,37.35
2022-10-29T07:05:28.846Z,40.08
2022-10-29T07:06:33.386Z,35.33
2022-10-29T07:07:37.153Z,39.22
2022-10-29T07:08:40.946Z,34.33
2022-10-29T07:09:43.679Z,32.75
2022-10-29T07:10:47.478Z,26.75
2022-10-29T07:11:50.167Z,26.45
2022-10-29T07:12:53.976Z,23.17
2022-10-29T07:13:57.916Z,24.27
2022-10-29T07:15:00.926Z,24.10
2022-10-29T07:16:05.066Z,20.48
2022-10-29T07:17:07.845Z,22.23
2022-10-29T07:18:12.466Z,21.85
2022-10-29T07:19:15.607Z,21.70
2022-10-29T07:20:20.186Z,21.63
2022-10-29T07:21:25.569Z,23.15
2022-10-29T07:22:33.916Z,22.25
2022-10-29T07:23:38.816Z,23.80
2022-10-29T07:24:41.812Z,20.83
2022-10-29T07:25:45.801Z,30.75
2022-10-29T07:26:48.488Z,27.08
2022-10-29T07:27:52.635Z,28.20
2022-10-29T07:28:58.640Z,34.53
2022-10-29T07:30:01.292Z,33.05
2022-10-29T07:31:05.175Z,30.35
2022-10-29T07:32:07.827Z,25.45
2022-10-29T07:33:11.696Z,40.38
2022-10-29T07:34:14.568Z,30.63
2022-10-29T07:35:18.814Z,28.95
2022-10-29T07:36:21.705Z,22.48
2022-10-29T07:37:27.199Z,34.72
2022-10-29T07:38:30.224Z,26.10
2022-10-29T07:39:33.969Z,23.42
2022-10-29T07:40:37.038Z,22.23
2022-10-29T07:41:40.873Z,22.73
2022-10-29T07:42:43.727Z,23.23
2022-10-29T07:43:47.504Z,28.98
2022-10-29T07:44:50.607Z,22.95
2022-10-29T07:45:54.577Z,22.45
2022-10-29T07:46:57.841Z,28.45
2022-10-29T07:48:03.120Z,22.88
2022-10-29T07:49:05.996Z,22.02
2022-10-29T07:50:10.516Z,22.05
2022-10-29T07:51:13.311Z,22.63
2022-10-29T07:52:17.100Z,28.08
2022-10-29T07:53:21.195Z,22.23
2022-10-29T07:54:25.051Z,21.42
2022-10-29T07:56:36.592Z,21.35
2022-10-29T07:57:39.312Z,24.80
2022-10-29T07:58:43.034Z,19.77
2022-10-29T07:59:47.083Z,22.40
2022-10-29T08:00:51.260Z,19.40
2022-10-29T08:01:55.232Z,20.60
2022-10-29T08:02:58.466Z,18.83
2022-10-29T08:04:02.274Z,17.60
2022-10-29T08:05:05.629Z,19.23
2022-10-29T08:06:09.570Z,17.95
2022-10-29T08:07:12.493Z,18.40
2022-10-29T08:08:17.728Z,17.80
2022-10-29T08:09:22.112Z,16.23
2022-10-29T08:10:26.573Z,20.23
2022-10-29T08:11:31.154Z,15.68
2022-10-29T08:12:35.032Z,20.02
2022-10-29T08:13:37.668Z,15.57
2022-10-29T08:14:41.514Z,21.38
2022-10-29T08:15:46.797Z,19.73
2022-10-29T08:16:50.539Z,13.73
2022-10-29T08:17:53.397Z,13.98
2022-10-29T08:18:57.809Z,14.48
2022-10-29T08:20:02.538Z,11.85
2022-10-29T08:21:07.405Z,17.98
2022-10-29T08:22:10.094Z,16.63
2022-10-29T08:23:14.078Z,14.98
2022-10-29T08:24:16.824Z,16.05
2022-10-29T08:25:22.141Z,13.77
2022-10-29T08:26:24.888Z,23.00
2022-10-29T08:27:29.008Z,16.48
2022-10-29T08:28:35.653Z,19.67
2022-10-29T08:29:38.593Z,15.93
2022-10-29T08:30:44.234Z,15.70
2022-10-29T08:31:48.102Z,16.25
2022-10-29T08:32:50.887Z,16.67
2022-10-29T08:33:54.575Z,15.93
2022-10-29T08:34:57.377Z,14.45
2022-10-29T08:36:01.466Z,14.35
2022-10-29T08:37:04.085Z,14.02
2022-10-29T08:38:07.913Z,15.65
2022-10-29T08:39:10.609Z,17.02
2022-10-29T08:40:17.505Z,19.42
2022-10-29T08:41:37.135Z,17.08
2022-10-29T08:42:44.494Z,18.83
2022-10-29T08:44:08.109Z,16.45
2022-10-29T08:45:19.864Z,15.77
2022-10-29T08:46:33.797Z,13.85
2022-10-29T08:47:48.106Z,14.90
2022-10-29T08:48:55.836Z,15.43
2022-10-29T08:50:04.362Z,15.77
2022-10-29T08:51:13.675Z,13.50
2022-10-29T08:52:21.155Z,16.58
2022-10-29T08:53:32.845Z,13.43
2022-10-29T08:54:40.244Z,13.32
2022-10-29T08:55:43.246Z,12.55
2022-10-29T08:56:50.915Z,13.13
2022-10-29T08:57:57.218Z,11.55
2022-10-29T08:59:04.276Z,10.45
2022-10-29T09:00:14.647Z,11.82
2022-10-29T09:01:19.701Z,13.13
2022-10-29T09:02:22.568Z,16.63
2022-10-29T09:03:29.847Z,11.77
2022-10-29T09:04:35.610Z,16.85
2022-10-29T09:05:50.149Z,13.35
2022-10-29T09:07:04.486Z,13.40
2022-10-29T09:08:19.574Z,9.82
2022-10-29T09:09:31.059Z,10.27
2022-10-29T09:10:41.721Z,11.15
2022-10-29T09:12:03.216Z,11.50
2022-10-29T09:13:31.356Z,10.80
2022-10-29T09:14:43.163Z,10.82
2022-10-29T09:16:09.748Z,9.75
2022-10-29T09:17:22.494Z,9.20
2022-10-29T09:18:33.555Z,9.43
2022-10-29T09:19:47.107Z,13.13
2022-10-29T09:20:55.083Z,12.02
2022-10-29T09:22:10.259Z,11.07
2022-10-29T09:23:20.878Z,18.27
2022-10-29T09:24:29.177Z,11.18
2022-10-29T09:25:35.813Z,11.98
2022-10-29T09:26:45.745Z,10.68
2022-10-29T09:28:00.819Z,10.70
2022-10-29T09:29:17.099Z,13.25
2022-10-29T09:30:20.712Z,10.10
2022-10-29T09:31:31.216Z,9.23
2022-10-29T09:32:36.574Z,9.25
2022-10-29T09:33:40.446Z,11.20
2022-10-29T09:34:46.105Z,13.23
2022-10-29T09:35:54.873Z,9.75
2022-10-29T09:36:57.970Z,10.55
2022-10-29T09:38:03.168Z,10.95
2022-10-29T09:39:13.036Z,10.20
2022-10-29T09:40:30.914Z,10.88
2022-10-29T09:41:36.114Z,9.43
2022-10-29T09:42:40.264Z,8.00
2022-10-29T09:43:50.839Z,10.23
2022-10-29T09:44:55.931Z,12.75
2022-10-29T09:46:05.104Z,10.13
2022-10-29T09:47:14.911Z,8.68
2022-10-29T09:48:22.914Z,7.93
2022-10-29T09:49:35.605Z,12.13
2022-10-29T09:50:43.466Z,8.32
2022-10-29T09:51:53.407Z,10.52
2022-10-29T09:52:56.860Z,8.82
2022-10-29T09:54:00.825Z,10.30
2022-10-29T09:55:04.514Z,8.48
2022-10-29T09:56:09.257Z,8.07
2022-10-29T09:57:17.765Z,8.70
2022-10-29T09:58:22.937Z,10.90
2022-10-29T09:59:30.406Z,10.57
2022-10-29T10:00:34.774Z,9.20
2022-10-29T10:01:37.491Z,10.30
2022-10-29T10:02:45.182Z,12.65
2022-10-29T10:03:50.464Z,9.20
2022-10-29T10:04:55.242Z,9.80
2022-10-29T10:06:01.835Z,10.93
2022-10-29T10:07:07.253Z,18.48
2022-10-29T10:08:12.988Z,10.80
2022-10-29T10:09:15.594Z,9.00
2022-10-29T10:10:23.774Z,8.40
2022-10-29T10:11:28.365Z,10.52
2022-10-29T10:12:46.948Z,9.93
2022-10-29T10:13:58.114Z,7.63
2022-10-29T10:15:08.409Z,13.07
2022-10-29T10:16:12.148Z,11.68
2022-10-29T10:17:15.434Z,10.43
2022-10-29T10:18:20.576Z,9.98
2022-10-29T10:19:25.332Z,11.35
2022-10-29T10:20:31.369Z,8.55
2022-10-29T10:21:35.485Z,11.25
2022-10-29T10:22:47.147Z,9.25
2022-10-29T10:23:51.984Z,9.90
2022-10-29T10:24:54.603Z,9.82
2022-10-29T10:26:02.359Z,10.02
2022-10-29T10:27:25.776Z,8.85
2022-10-29T10:28:31.057Z,11.18
2022-10-29T10:29:34.782Z,10.02
2022-10-29T10:30:39.257Z,7.72
2022-10-29T10:31:47.749Z,8.50
2022-10-29T10:32:51.656Z,9.07
2022-10-29T10:33:57.082Z,11.98
2022-10-29T10:34:59.836Z,7.65
2022-10-29T10:36:06.507Z,13.57
2022-10-29T10:37:17.457Z,13.35
2022-10-29T10:38:20.829Z,11.55
2022-10-29T10:39:31.732Z,10.73
2022-10-29T10:40:36.317Z,10.38
2022-10-29T10:41:44.031Z,7.80
2022-10-29T10:42:50.878Z,8.60
2022-10-29T10:43:58.638Z,8.25
2022-10-29T10:45:04.464Z,8.38
2022-10-29T10:46:15.715Z,10.73
2022-10-29T10:47:20.742Z,7.70
2022-10-29T10:48:25.915Z,10.50
2022-10-29T10:49:34.939Z,9.07
2022-10-29T10:50:39.141Z,9.60
2022-10-29T10:51:44.464Z,12.90
2022-10-29T10:52:48.606Z,10.27
2022-10-29T10:53:51.665Z,8.38
2022-10-29T10:55:00.856Z,11.18
2022-10-29T10:56:05.553Z,11.38
2022-10-29T10:57:22.956Z,10.00
2022-10-29T10:58:29.905Z,8.10
2022-10-29T10:59:44.644Z,7.85
2022-10-29T11:00:51.792Z,15.27
2022-10-29T11:02:00.856Z,11.38
2022-10-29T11:03:14.521Z,8.18
2022-10-29T11:04:21.763Z,8.57
2022-10-29T11:05:31.853Z,10.23
2022-10-29T11:06:39.232Z,14.17
2022-10-29T11:07:49.890Z,9.40
2022-10-29T11:08:57.527Z,10.07
2022-10-29T11:10:07.791Z,9.85
2022-10-29T11:11:18.287Z,9.27
2022-10-29T11:12:28.567Z,11.57
2022-10-29T11:13:35.175Z,6.47
2022-10-29T11:14:44.233Z,8.77
2022-10-29T11:15:51.561Z,9.70
2022-10-29T11:16:58.078Z,6.93
2022-10-29T11:18:06.246Z,9.15
2022-10-29T11:19:16.960Z,7.50
2022-10-29T11:20:25.939Z,6.77
2022-10-29T11:21:34.267Z,7.35
2022-10-29T11:22:46.951Z,8.38
2022-10-29T11:23:55.929Z,7.72
2022-10-29T11:25:04.327Z,9.52
2022-10-29T11:26:10.723Z,8.85
2022-10-29T11:27:25.913Z,8.88
2022-10-29T11:28:33.569Z,8.27
2022-10-29T11:29:47.321Z,11.40
2022-10-29T11:30:57.523Z,10.68
2022-10-29T11:32:08.260Z,9.25
2022-10-29T11:33:17.515Z,11.60
2022-10-29T11:34:24.116Z,11.23
2022-10-29T11:35:38.566Z,8.63
2022-10-29T11:36:46.666Z,9.55
2022-10-29T11:37:53.492Z,7.05
2022-10-29T11:39:01.682Z,9.85
2022-10-29T11:40:06.855Z,8.20
2022-10-29T11:41:21.614Z,8.52
2022-10-29T11:42:25.446Z,6.28
2022-10-29T11:43:28.255Z,8.18
2022-10-29T11:44:36.139Z,8.82
2022-10-29T11:45:47.515Z,7.22
2022-10-29T11:47:06.586Z,11.52
2022-10-29T11:48:21.492Z,8.88
2022-10-29T11:49:34.929Z,7.53
2022-10-29T11:50:43.775Z,9.95
2022-10-29T11:51:54.526Z,8.30
2022-10-29T11:53:06.918Z,9.60
2022-10-29T11:54:17.405Z,9.82
2022-10-29T11:55:27.048Z,9.15
2022-10-29T11:56:44.425Z,7.32
2022-10-29T11:57:55.255Z,11.00
2022-10-29T11:59:04.019Z,6.97
2022-10-29T12:00:14.565Z,6.93
2022-10-29T12:01:22.993Z,7.05
2022-10-29T12:02:41.679Z,9.23
2022-10-29T12:03:57.868Z,8.70
2022-10-29T12:05:05.427Z,13.30
2022-10-29T12:06:15.585Z,10.23
2022-10-29T12:07:27.472Z,9.15
2022-10-29T12:08:42.884Z,12.38
2022-10-29T12:10:36.249Z,8.90
2022-10-29T12:11:43.594Z,12.30
2022-10-29T12:12:50.318Z,7.53
2022-10-29T12:14:02.147Z,8.25
2022-10-29T12:15:16.567Z,7.40
2022-10-29T12:16:28.904Z,7.40
2022-10-29T12:17:37.156Z,19.25
2022-10-29T12:18:47.491Z,8.20
2022-10-29T12:19:57.991Z,8.63
2022-10-29T12:21:07.806Z,6.65
2022-10-29T12:22:23.363Z,8.00
2022-10-29T12:23:34.087Z,9.52
2022-10-29T12:24:50.546Z,8.10
2022-10-29T12:26:02.105Z,11.38
2022-10-29T12:27:13.437Z,8.52
2022-10-29T12:28:22.466Z,7.75
2022-10-29T12:29:29.977Z,11.57
2022-10-29T12:30:37.167Z,10.15
2022-10-29T12:31:45.431Z,7.60
2022-10-29T12:32:56.285Z,8.75
2022-10-29T12:34:03.548Z,8.18
2022-10-29T12:35:12.805Z,9.65
2022-10-29T12:36:23.537Z,6.20
2022-10-29T12:37:33.876Z,8.07
2022-10-29T12:38:42.551Z,9.73
2022-10-29T12:39:55.362Z,9.50
2022-10-29T12:41:03.976Z,9.40
2022-10-29T12:42:11.306Z,10.90
2022-10-29T12:43:18.619Z,10.95
2022-10-29T12:44:27.444Z,10.00
2022-10-29T12:45:39.991Z,8.60
2022-10-29T12:47:03.562Z,8.38
2022-10-29T12:48:15.665Z,8.20
2022-10-29T12:49:22.679Z,7.88
2022-10-29T12:50:35.018Z,8.40
2022-10-29T12:51:44.370Z,9.40
2022-10-29T12:52:50.594Z,7.97
2022-10-29T12:54:12.795Z,8.53
2022-10-29T12:55:18.157Z,7.87
2022-10-29T12:56:21.621Z,10.17
2022-10-29T12:57:32.395Z,8.10
2022-10-29T12:58:49.125Z,5.93
2022-10-29T12:59:52.925Z,7.73
2022-10-29T13:00:55.735Z,8.00
2022-10-29T13:02:21.382Z,6.27
2022-10-29T13:04:03.639Z,8.93
2022-10-29T13:05:21.426Z,10.70
2022-10-29T13:06:46.129Z,8.00
2022-10-29T13:08:12.887Z,8.77
2022-10-29T13:09:21.365Z,6.57
2022-10-29T13:10:55.641Z,7.03
2022-10-29T13:12:00.815Z,8.97
2022-10-29T13:13:17.253Z,10.53
2022-10-29T13:14:27.682Z,9.40
2022-10-29T13:15:33.356Z,19.63
2022-10-29T13:16:37.176Z,7.10
2022-10-29T13:17:40.806Z,9.43
2022-10-29T13:18:57.753Z,7.20
2022-10-29T13:20:05.463Z,11.57
2022-10-29T13:21:08.275Z,9.13
2022-10-29T13:22:53.499Z,7.53
2022-10-29T13:24:04.018Z,11.07
2022-10-29T13:25:30.062Z,7.93
2022-10-29T13:26:55.685Z,10.47
2022-10-29T13:27:58.452Z,7.97
2022-10-29T13:29:02.381Z,8.53
2022-10-29T13:30:22.339Z,8.80
2022-10-29T13:31:47.915Z,8.97
2022-10-29T13:32:51.663Z,6.73
2022-10-29T13:33:54.594Z,7.10
2022-10-29T13:34:59.947Z,8.03
2022-10-29T13:36:06.077Z,8.47
2022-10-29T13:37:41.356Z,9.80
2022-10-29T13:38:58.315Z,10.43
2022-10-29T13:40:45.373Z,6.40
2022-10-29T13:41:51.804Z,9.33
2022-10-29T13:42:58.057Z,6.50
2022-10-29T13:44:05.131Z,9.17
2022-10-29T13:45:11.246Z,9.77
2022-10-29T13:46:48.192Z,18.03
2022-10-29T13:47:51.859Z,9.30
2022-10-29T13:48:57.151Z,8.10
2022-10-29T13:50:00.388Z,7.43
2022-10-29T13:51:36.436Z,6.93
2022-10-29T13:52:44.095Z,8.93
2022-10-29T13:53:52.124Z,12.40
2022-10-29T13:54:59.144Z,7.00
2022-10-29T13:56:02.503Z,10.77
2022-10-29T13:57:10.577Z,8.30
2022-10-29T13:58:15.905Z,11.03
2022-10-29T13:59:29.677Z,8.87
2022-10-29T14:00:35.067Z,9.23
2022-10-29T14:01:38.568Z,9.60
2022-10-29T14:02:53.078Z,7.33
2022-10-29T14:04:00.356Z,5.97
2022-10-29T14:05:09.050Z,8.73
2022-10-29T14:06:18.671Z,6.90
2022-10-29T14:07:26.168Z,13.43
2022-10-29T14:08:36.402Z,14.00
2022-10-29T14:09:46.645Z,8.93
2022-10-29T14:10:50.489Z,8.10
2022-10-29T14:11:59.528Z,9.38
2022-10-29T14:13:25.761Z,7.85
2022-10-29T14:14:33.983Z,8.13
2022-10-29T14:15:40.116Z,9.73
2022-10-29T14:16:43.035Z,11.57
2022-10-29T14:17:46.725Z,7.72
2022-10-29T14:18:54.586Z,8.50
2022-10-29T14:20:04.617Z,7.00
2022-10-29T14:21:16.143Z,22.40
2022-10-29T14:22:41.913Z,9.48
2022-10-29T14:23:56.397Z,12.05
2022-10-29T14:25:00.250Z,10.30
2022-10-29T14:26:06.603Z,8.95
2022-10-29T14:27:28.999Z,8.10
2022-10-29T14:28:33.518Z,9.30